Airport View

Enter AWOS ICAO identifier for current METAR.

ex. KFNL

KGAD 251556Z AUTO 00000KT 10SM OVC005 19/18 A3001 RMK AO2 SLP164 T01940183 PNO $

25 Oct 2020 16:41

Frequency: 127.825

Phone: 256-442-7094

Other Area AWOS: K8A0 - KASN - KANB - KPLR

TAF KANB 251140Z 2512/2612 00000KT 6SM -DZ BR SCT004 OVC010 TEMPO 2512/2515 BKN004 FM251500 VRB03KT P6SM OVC011 FM252100 00000KT P6SM BKN045 FM260400 00000KT 5SM BR BKN023 FM261100 00000KT 5SM BR BKN007